Time;durP1;ratioP1;P1;durP2;ratioP2;P2;SDS_P1;SDS_P2;PMS_P1;PMS_P2;Temp;Humidity;BMP_temperature;BMP_pressure;BME280_temperature;BME280_humidity;BME280_pressure;Samples;Min_cycle;Max_cycle;Signal;HPM_P1;HPM_P2
2022/06/10 00:01:38;;;;;;;6.97;1.75;;;;;;;;;;5079747;28;20025;-67
2022/06/10 00:04:03;;;;;;;7.10;1.60;;;;;;;;;;5084769;28;20020;-67
2022/06/10 00:06:29;;;;;;;6.65;1.67;;;;;;;;;;5086602;28;20042;-67
2022/06/10 00:08:54;;;;;;;11.35;1.88;;;;;;;;;;5083796;28;20044;-67
2022/06/10 00:11:19;;;;;;;5.45;2.10;;;;;;;;;;5090739;28;20047;-67
2022/06/10 00:13:46;;;;;;;6.57;1.80;;;;;;;;;;5090839;28;20024;-67
2022/06/10 00:16:14;;;;;;;8.85;2.03;;;;;;;;;;5076792;28;20028;-67
2022/06/10 00:18:41;;;;;;;8.50;1.83;;;;;;;;;;5093838;28;20036;-67
2022/06/10 00:21:08;;;;;;;6.32;1.80;;;;;;;;;;5084826;28;20139;-67
2022/06/10 00:23:33;;;;;;;7.22;2.13;;;;;;;;;;5091952;28;20033;-67
2022/06/10 00:25:59;;;;;;;7.28;1.88;;;;;;;;;;5079639;28;20047;-67
2022/06/10 00:28:25;;;;;;;8.13;2.17;;;;;;;;;;5081813;28;20078;-67
2022/06/10 00:30:51;;;;;;;4.05;1.50;;;;;;;;;;5089250;28;20593;-67
2022/06/10 00:33:16;;;;;;;7.60;1.48;;;;;;;;;;5086119;28;20517;-67
2022/06/10 00:35:42;;;;;;;4.25;1.45;;;;;;;;;;5089460;28;20039;-67
2022/06/10 00:38:08;;;;;;;7.88;1.70;;;;;;;;;;5090316;28;20036;-67
2022/06/10 00:40:37;;;;;;;5.75;1.73;;;;;;;;;;5083989;28;20043;-67
2022/06/10 00:43:03;;;;;;;7.75;2.05;;;;;;;;;;5081004;28;20118;-66
2022/06/10 00:45:56;;;;;;;7.00;2.72;;;;;;;;;;5089192;28;20174;-67
2022/06/10 00:48:36;;;;;;;3.97;1.80;;;;;;;;;;5079320;28;20032;-67
2022/06/10 00:51:24;;;;;;;8.38;2.55;;;;;;;;;;5079064;28;20032;-67
2022/06/10 00:53:56;;;;;;;3.38;1.70;;;;;;;;;;5071772;28;20035;-67
2022/06/10 00:56:24;;;;;;;5.25;1.90;;;;;;;;;;5085764;28;20028;-67
2022/06/10 00:58:52;;;;;;;7.55;2.10;;;;;;;;;;5083000;28;20040;-67
2022/06/10 01:01:20;;;;;;;13.50;1.98;;;;;;;;;;5074861;28;20056;-67
2022/06/10 01:03:45;;;;;;;3.83;1.60;;;;;;;;;;5084976;28;20043;-67
2022/06/10 01:06:11;;;;;;;6.60;1.60;;;;;;;;;;5086038;28;20043;-67
2022/06/10 01:08:38;;;;;;;5.30;1.63;;;;;;;;;;5081493;28;20033;-67
2022/06/10 01:11:19;;;;;;;6.85;1.88;;;;;;;;;;5082929;28;20032;-67
2022/06/10 01:14:22;;;;;;;6.35;2.00;;;;;;;;;;5076049;28;20024;-67
2022/06/10 01:17:10;;;;;;;5.40;2.03;;;;;;;;;;5081388;28;20067;-67
2022/06/10 01:19:47;;;;;;;6.72;2.25;;;;;;;;;;5079211;28;20024;-67
2022/06/10 01:22:28;;;;;;;6.38;2.03;;;;;;;;;;5083421;28;20055;-67
2022/06/10 01:25:02;;;;;;;6.93;1.67;;;;;;;;;;5072227;28;20028;-67
2022/06/10 01:27:49;;;;;;;4.05;1.80;;;;;;;;;;5076349;28;20040;-67
2022/06/10 01:30:36;;;;;;;9.68;2.00;;;;;;;;;;5080487;28;20481;-67
2022/06/10 01:33:34;;;;;;;10.07;2.13;;;;;;;;;;5073050;28;20047;-67
2022/06/10 01:36:33;;;;;;;7.68;1.77;;;;;;;;;;5076836;28;20040;-67
2022/06/10 01:39:08;;;;;;;4.90;1.70;;;;;;;;;;5085379;28;20039;-67
2022/06/10 01:41:51;;;;;;;4.25;1.75;;;;;;;;;;5088940;28;20044;-67
2022/06/10 01:44:53;;;;;;;6.30;1.70;;;;;;;;;;5084999;28;20123;-67
2022/06/10 01:47:21;;;;;;;8.10;2.03;;;;;;;;;;5088869;28;20028;-67
2022/06/10 01:49:56;;;;;;;6.68;2.00;;;;;;;;;;5094629;28;20030;-67
2022/06/10 01:52:36;;;;;;;7.70;1.73;;;;;;;;;;5085914;28;20024;-67
2022/06/10 01:55:06;;;;;;;8.00;1.98;;;;;;;;;;5074399;28;20120;-67
2022/06/10 01:57:34;;;;;;;4.60;1.70;;;;;;;;;;5088074;28;20032;-67
2022/06/10 02:00:12;;;;;;;11.57;2.00;;;;;;;;;;5081775;28;20044;-67
2022/06/10 02:02:41;;;;;;;7.55;2.47;;;;;;;;;;5088303;28;20036;-67
2022/06/10 02:05:12;;;;;;;6.65;1.85;;;;;;;;;;5079028;28;20043;-67
2022/06/10 02:07:49;;;;;;;5.93;1.85;;;;;;;;;;5081406;28;20024;-67
2022/06/10 02:10:23;;;;;;;5.90;1.90;;;;;;;;;;5087502;28;20024;-67
2022/06/10 02:12:58;;;;;;;3.70;1.88;;;;;;;;;;5079018;28;20036;-67
2022/06/10 02:15:29;;;;;;;4.63;1.60;;;;;;;;;;5086501;28;20400;-67
2022/06/10 02:18:05;;;;;;;3.78;1.90;;;;;;;;;;5085064;28;20052;-67
2022/06/10 02:20:32;;;;;;;6.18;1.98;;;;;;;;;;5077633;28;20656;-67
2022/06/10 02:23:02;;;;;;;4.18;1.45;;;;;;;;;;5084660;28;20044;-67
2022/06/10 02:25:33;;;;;;;5.35;1.55;;;;;;;;;;5082217;28;20020;-67
2022/06/10 02:28:05;;;;;;;7.40;1.95;;;;;;;;;;5068366;28;20557;-67
2022/06/10 02:30:43;;;;;;;3.92;1.58;;;;;;;;;;5083534;28;20028;-67
2022/06/10 02:33:10;;;;;;;8.48;1.92;;;;;;;;;;5070215;28;20127;-67
2022/06/10 02:35:53;;;;;;;5.65;1.77;;;;;;;;;;5083996;28;20063;-67
2022/06/10 02:38:21;;;;;;;5.35;2.08;;;;;;;;;;5087272;28;20044;-67
2022/06/10 02:41:02;;;;;;;4.63;1.63;;;;;;;;;;5082152;28;20036;-67
2022/06/10 02:43:37;;;;;;;5.10;1.70;;;;;;;;;;5084239;28;20047;-67
2022/06/10 02:46:12;;;;;;;5.72;1.80;;;;;;;;;;5078312;28;20068;-67
2022/06/10 02:49:05;;;;;;;3.50;1.55;;;;;;;;;;5087028;28;20036;-67
2022/06/10 02:51:31;;;;;;;6.03;1.50;;;;;;;;;;5083945;28;20610;-67
2022/06/10 02:53:57;;;;;;;4.65;1.60;;;;;;;;;;5077861;28;20060;-67
2022/06/10 02:56:26;;;;;;;6.93;1.80;;;;;;;;;;5075132;28;20066;-67
2022/06/10 03:02:16;;;;;;;5.78;1.70;;;;;;;;;;5080202;28;20043;-67
2022/06/10 03:05:03;;;;;;;9.18;2.10;;;;;;;;;;5078477;28;20027;-67
2022/06/10 03:07:53;;;;;;;8.63;1.75;;;;;;;;;;5078134;28;20675;-67
2022/06/10 03:10:32;;;;;;;7.15;1.70;;;;;;;;;;5075949;28;20552;-67
2022/06/10 03:13:03;;;;;;;8.68;1.90;;;;;;;;;;5086041;28;20100;-67
2022/06/10 03:16:01;;;;;;;5.28;1.77;;;;;;;;;;5087063;28;20044;-67
2022/06/10 03:18:33;;;;;;;4.13;1.60;;;;;;;;;;5082993;28;20028;-67
2022/06/10 03:21:19;;;;;;;6.20;1.80;;;;;;;;;;5081378;28;20051;-67
2022/06/10 03:24:09;;;;;;;5.50;2.03;;;;;;;;;;5090511;28;20052;-67
2022/06/10 03:26:50;;;;;;;7.68;1.52;;;;;;;;;;5086122;28;20040;-67
2022/06/10 03:29:34;;;;;;;8.05;1.88;;;;;;;;;;5088800;28;20040;-67
2022/06/10 03:32:15;;;;;;;6.57;1.70;;;;;;;;;;5090570;28;20028;-67
2022/06/10 03:34:49;;;;;;;4.90;1.65;;;;;;;;;;5080755;28;20028;-67
2022/06/10 03:37:17;;;;;;;6.57;1.77;;;;;;;;;;5080301;28;20386;-67
2022/06/10 03:39:49;;;;;;;7.82;1.63;;;;;;;;;;5081188;28;20039;-67
2022/06/10 03:42:17;;;;;;;4.30;1.70;;;;;;;;;;5077245;28;20041;-67
2022/06/10 03:44:44;;;;;;;6.78;1.60;;;;;;;;;;5090587;28;20529;-67
2022/06/10 03:47:16;;;;;;;6.85;1.80;;;;;;;;;;5087098;28;20036;-67
2022/06/10 03:49:49;;;;;;;4.78;1.70;;;;;;;;;;5078380;28;20026;-67
2022/06/10 03:52:20;;;;;;;4.05;1.50;;;;;;;;;;5087017;28;20028;-68
2022/06/10 03:54:46;;;;;;;5.00;1.88;;;;;;;;;;5083999;28;20636;-67
2022/06/10 03:57:11;;;;;;;5.75;1.60;;;;;;;;;;5076734;28;20043;-67
2022/06/10 03:59:37;;;;;;;7.63;1.80;;;;;;;;;;5080005;28;20404;-67
2022/06/10 04:02:02;;;;;;;4.10;1.73;;;;;;;;;;5083112;28;20127;-67
2022/06/10 04:04:28;;;;;;;6.03;1.83;;;;;;;;;;5083261;28;20103;-67
2022/06/10 04:06:53;;;;;;;3.55;1.52;;;;;;;;;;5074346;28;20447;-67
2022/06/10 04:09:19;;;;;;;4.55;1.90;;;;;;;;;;5088967;28;20067;-67
2022/06/10 04:11:44;;;;;;;3.58;1.60;;;;;;;;;;5083229;28;20059;-67
2022/06/10 04:14:09;;;;;;;3.75;1.90;;;;;;;;;;5081055;28;20459;-67
2022/06/10 04:16:35;;;;;;;4.75;1.50;;;;;;;;;;5086444;28;20028;-67
2022/06/10 04:19:00;;;;;;;5.13;1.70;;;;;;;;;;5085873;28;20024;-67
2022/06/10 04:21:25;;;;;;;6.15;1.83;;;;;;;;;;5077460;28;20056;-67
2022/06/10 04:23:51;;;;;;;8.10;2.10;;;;;;;;;;5087058;28;20032;-67
2022/06/10 04:26:17;;;;;;;3.42;1.50;;;;;;;;;;5089946;28;20041;-67
2022/06/10 04:28:42;;;;;;;7.45;2.08;;;;;;;;;;5076596;28;20031;-67
2022/06/10 04:31:07;;;;;;;8.60;2.00;;;;;;;;;;5078910;28;20032;-67
2022/06/10 04:33:35;;;;;;;6.22;1.60;;;;;;;;;;5082814;28;20043;-67
2022/06/10 04:36:00;;;;;;;7.75;1.70;;;;;;;;;;5073726;28;20052;-67
2022/06/10 04:38:26;;;;;;;3.42;1.60;;;;;;;;;;5080080;28;20104;-67
2022/06/10 04:40:51;;;;;;;2.63;1.40;;;;;;;;;;5079447;28;20127;-67
2022/06/10 04:43:17;;;;;;;3.30;1.45;;;;;;;;;;5080605;28;20024;-67
2022/06/10 04:45:49;;;;;;;8.93;1.90;;;;;;;;;;5088973;28;20032;-67
2022/06/10 04:48:15;;;;;;;9.07;1.60;;;;;;;;;;5088609;28;20039;-67
2022/06/10 04:50:41;;;;;;;5.38;1.65;;;;;;;;;;5073705;28;20413;-67
2022/06/10 04:53:06;;;;;;;4.57;1.77;;;;;;;;;;5077783;28;20043;-66
2022/06/10 04:55:32;;;;;;;7.18;1.67;;;;;;;;;;5077282;28;20025;-67
2022/06/10 04:57:57;;;;;;;6.93;1.80;;;;;;;;;;5087379;28;20035;-67
2022/06/10 05:00:30;;;;;;;4.25;1.60;;;;;;;;;;5085906;28;20046;-67
2022/06/10 05:02:55;;;;;;;5.88;1.30;;;;;;;;;;5090829;28;20092;-67
2022/06/10 05:05:21;;;;;;;8.02;1.98;;;;;;;;;;5079012;28;20036;-67
2022/06/10 05:07:47;;;;;;;7.72;1.95;;;;;;;;;;5084719;28;20120;-67
2022/06/10 05:10:14;;;;;;;4.30;1.77;;;;;;;;;;5084047;28;20117;-67
2022/06/10 05:12:39;;;;;;;4.70;1.60;;;;;;;;;;5086960;28;20097;-67
2022/06/10 05:15:05;;;;;;;6.80;1.42;;;;;;;;;;5089799;28;20043;-67
2022/06/10 05:17:31;;;;;;;4.22;1.42;;;;;;;;;;5080763;28;20033;-67
2022/06/10 05:19:56;;;;;;;4.68;1.80;;;;;;;;;;5079495;28;20032;-67
2022/06/10 05:22:22;;;;;;;4.80;1.90;;;;;;;;;;5085086;28;20102;-67
2022/06/10 05:24:47;;;;;;;5.30;1.73;;;;;;;;;;5073876;28;20081;-67
2022/06/10 05:27:12;;;;;;;7.13;1.85;;;;;;;;;;5084556;28;20032;-67
2022/06/10 05:29:38;;;;;;;5.40;1.80;;;;;;;;;;5082553;28;20036;-67
2022/06/10 05:32:03;;;;;;;5.60;1.70;;;;;;;;;;5085883;28;20085;-67
2022/06/10 05:34:44;;;;;;;4.60;1.98;;;;;;;;;;5080296;28;20038;-67
2022/06/10 05:37:10;;;;;;;5.82;1.98;;;;;;;;;;5082800;28;20071;-67
2022/06/10 05:39:36;;;;;;;7.85;1.90;;;;;;;;;;5071702;28;20082;-67
2022/06/10 05:42:08;;;;;;;5.15;1.92;;;;;;;;;;5078928;28;20047;-67
2022/06/10 05:44:43;;;;;;;5.65;1.90;;;;;;;;;;5080543;28;20042;-67
2022/06/10 05:47:11;;;;;;;4.53;1.85;;;;;;;;;;5073894;28;20700;-67
2022/06/10 05:49:40;;;;;;;3.63;1.98;;;;;;;;;;5075122;28;20028;-67
2022/06/10 05:52:07;;;;;;;7.85;1.90;;;;;;;;;;5081760;28;20453;-67
2022/06/10 05:54:34;;;;;;;7.65;2.00;;;;;;;;;;5085382;28;20065;-67
2022/06/10 05:57:00;;;;;;;9.60;2.17;;;;;;;;;;5074735;28;20109;-67
2022/06/10 05:59:29;;;;;;;7.70;2.00;;;;;;;;;;5081928;28;20090;-67
2022/06/10 06:01:55;;;;;;;5.45;2.75;;;;;;;;;;5084174;28;20132;-67
2022/06/10 06:04:20;;;;;;;6.18;2.22;;;;;;;;;;5080184;28;20443;-67
2022/06/10 06:06:46;;;;;;;6.45;2.03;;;;;;;;;;5086732;28;20028;-67
2022/06/10 06:09:13;;;;;;;4.75;2.10;;;;;;;;;;5077410;28;20036;-67
2022/06/10 06:11:39;;;;;;;11.35;2.75;;;;;;;;;;5080608;28;20032;-67
2022/06/10 06:14:04;;;;;;;7.72;2.70;;;;;;;;;;5076848;28;20087;-67
2022/06/10 06:16:30;;;;;;;9.30;2.25;;;;;;;;;;5086242;28;20039;-67
2022/06/10 06:18:55;;;;;;;5.97;2.40;;;;;;;;;;5079069;28;20075;-67
2022/06/10 06:21:20;;;;;;;6.28;2.70;;;;;;;;;;5080220;28;20048;-67
2022/06/10 06:23:45;;;;;;;6.50;2.30;;;;;;;;;;5079382;28;20044;-67
2022/06/10 06:26:15;;;;;;;9.10;2.22;;;;;;;;;;5077808;28;20044;-67
2022/06/10 06:28:42;;;;;;;7.43;2.15;;;;;;;;;;5084141;28;20081;-67
2022/06/10 06:31:07;;;;;;;5.97;2.00;;;;;;;;;;5081522;28;20448;-67
2022/06/10 06:33:33;;;;;;;4.93;2.33;;;;;;;;;;5086270;28;20032;-69
2022/06/10 06:35:58;;;;;;;6.07;2.28;;;;;;;;;;5083571;28;20533;-71
2022/06/10 06:38:26;;;;;;;3.55;1.83;;;;;;;;;;5079538;28;20036;-71
2022/06/10 06:40:51;;;;;;;8.77;2.50;;;;;;;;;;5079645;28;20520;-70
2022/06/10 06:43:17;;;;;;;6.85;2.20;;;;;;;;;;5075560;28;20033;-70
2022/06/10 06:45:43;;;;;;;12.82;3.00;;;;;;;;;;5075813;28;20036;-69
2022/06/10 06:48:10;;;;;;;9.90;2.88;;;;;;;;;;5078729;28;20043;-68
2022/06/10 06:50:42;;;;;;;8.70;2.92;;;;;;;;;;5078247;28;20047;-69
2022/06/10 06:53:07;;;;;;;6.85;2.90;;;;;;;;;;5082082;28;20040;-69
2022/06/10 06:55:34;;;;;;;5.38;2.88;;;;;;;;;;5086499;28;20028;-69
2022/06/10 06:58:00;;;;;;;6.53;3.05;;;;;;;;;;5085855;28;20017;-69
2022/06/10 07:00:27;;;;;;;10.55;3.58;;;;;;;;;;5086751;28;20042;-69
2022/06/10 07:02:52;;;;;;;9.63;3.58;;;;;;;;;;5081474;28;20040;-69
2022/06/10 07:05:18;;;;;;;7.95;3.38;;;;;;;;;;5087503;28;20433;-69
2022/06/10 07:07:44;;;;;;;10.02;3.55;;;;;;;;;;5087622;28;20504;-69
2022/06/10 07:10:13;;;;;;;10.38;3.30;;;;;;;;;;5086803;28;20176;-69
2022/06/10 07:12:38;;;;;;;6.28;3.15;;;;;;;;;;5082353;28;20036;-68
2022/06/10 07:15:05;;;;;;;8.70;3.60;;;;;;;;;;5083769;28;20048;-67
2022/06/10 07:17:32;;;;;;;10.95;3.42;;;;;;;;;;5087770;28;20032;-71
2022/06/10 07:19:59;;;;;;;9.23;3.50;;;;;;;;;;5080398;28;20805;-70
2022/06/10 07:22:26;;;;;;;11.60;3.38;;;;;;;;;;5086839;28;20094;-70
2022/06/10 07:24:53;;;;;;;11.98;3.65;;;;;;;;;;5081021;28;20028;-70
2022/06/10 07:27:18;;;;;;;9.90;3.60;;;;;;;;;;5080671;28;20525;-70
2022/06/10 07:29:44;;;;;;;10.85;3.97;;;;;;;;;;5080773;28;20048;-70
2022/06/10 07:32:09;;;;;;;11.02;3.75;;;;;;;;;;5083699;28;20412;-70
2022/06/10 07:34:34;;;;;;;10.30;4.82;;;;;;;;;;5078362;28;20027;-70
2022/06/10 07:37:00;;;;;;;9.30;4.22;;;;;;;;;;5084148;28;20024;-70
2022/06/10 07:39:25;;;;;;;12.80;4.78;;;;;;;;;;5085069;28;20043;-70
2022/06/10 07:42:02;;;;;;;9.23;4.13;;;;;;;;;;5080145;28;20075;-70
2022/06/10 07:44:34;;;;;;;9.52;3.38;;;;;;;;;;5085140;28;20619;-70
2022/06/10 07:47:07;;;;;;;14.85;3.50;;;;;;;;;;5082994;28;20599;-70
2022/06/10 07:49:32;;;;;;;10.38;3.65;;;;;;;;;;5086741;28;20039;-70
2022/06/10 07:51:58;;;;;;;8.57;3.35;;;;;;;;;;5077551;28;20035;-70
2022/06/10 07:54:24;;;;;;;9.93;3.40;;;;;;;;;;5076650;28;20074;-70
2022/06/10 07:56:50;;;;;;;10.73;4.47;;;;;;;;;;5083298;28;20430;-70
2022/06/10 07:59:16;;;;;;;6.05;3.30;;;;;;;;;;5084686;28;20558;-70
2022/06/10 08:01:41;;;;;;;12.30;3.65;;;;;;;;;;5081518;28;20020;-70
2022/06/10 08:04:08;;;;;;;17.88;4.20;;;;;;;;;;5083555;28;20291;-70
2022/06/10 08:06:35;;;;;;;14.15;4.50;;;;;;;;;;5078866;28;20033;-71
2022/06/10 08:09:01;;;;;;;13.68;4.13;;;;;;;;;;5080111;28;20720;-70
2022/06/10 08:11:27;;;;;;;9.65;4.82;;;;;;;;;;5082895;28;20501;-69
2022/06/10 08:13:52;;;;;;;11.55;3.90;;;;;;;;;;5085475;28;20101;-69
2022/06/10 08:16:18;;;;;;;8.90;3.90;;;;;;;;;;5087212;28;20039;-69
2022/06/10 08:18:45;;;;;;;13.98;5.05;;;;;;;;;;5084779;28;20035;-70
2022/06/10 08:23:56;;;;;;;9.65;4.40;;;;;;;;;;5076305;28;20046;-70
2022/06/10 08:26:22;;;;;;;11.98;3.65;;;;;;;;;;5080737;28;20086;-69
2022/06/10 08:28:48;;;;;;;8.55;3.65;;;;;;;;;;5077445;28;20036;-69
2022/06/10 08:31:14;;;;;;;10.88;4.35;;;;;;;;;;5084461;28;20035;-68
2022/06/10 08:33:41;;;;;;;10.27;4.15;;;;;;;;;;5076644;28;20578;-70
2022/06/10 08:36:07;;;;;;;10.15;4.57;;;;;;;;;;5075214;28;20829;-69
2022/06/10 08:38:32;;;;;;;12.10;4.72;;;;;;;;;;5075405;28;20036;-69
2022/06/10 08:41:19;;;;;;;13.52;4.88;;;;;;;;;;5077930;28;20536;-70
2022/06/10 08:43:57;;;;;;;11.77;4.65;;;;;;;;;;5073071;28;20052;-72
2022/06/10 08:46:25;;;;;;;16.40;4.88;;;;;;;;;;5075238;28;20027;-70
2022/06/10 08:49:06;;;;;;;17.30;5.57;;;;;;;;;;5078388;28;20047;-69
2022/06/10 08:51:48;;;;;;;10.35;4.50;;;;;;;;;;5078102;28;20094;-67
2022/06/10 08:54:14;;;;;;;13.27;5.03;;;;;;;;;;5074180;28;20080;-69
2022/06/10 08:56:43;;;;;;;10.85;4.38;;;;;;;;;;5082117;28;20066;-67
2022/06/10 08:59:09;;;;;;;12.27;5.03;;;;;;;;;;5083431;28;20043;-67
2022/06/10 09:01:44;;;;;;;15.00;4.63;;;;;;;;;;5085555;28;20032;-66
2022/06/10 09:04:33;;;;;;;15.80;4.90;;;;;;;;;;5082913;28;20055;-67
2022/06/10 09:07:06;;;;;;;12.65;4.00;;;;;;;;;;5095662;28;20139;-67
2022/06/10 09:09:33;;;;;;;12.25;4.60;;;;;;;;;;5077864;28;20550;-71
2022/06/10 09:12:03;;;;;;;13.57;4.85;;;;;;;;;;5081529;28;20585;-68
2022/06/10 09:14:29;;;;;;;10.57;4.50;;;;;;;;;;5086345;28;20048;-69
2022/06/10 09:17:01;;;;;;;9.93;4.07;;;;;;;;;;5075999;28;20066;-68
2022/06/10 09:19:37;;;;;;;8.27;3.53;;;;;;;;;;5083150;28;20023;-66
2022/06/10 09:22:08;;;;;;;11.10;3.97;;;;;;;;;;5080744;28;20060;-66
2022/06/10 09:24:38;;;;;;;9.55;4.18;;;;;;;;;;5081614;28;20061;-67
2022/06/10 09:27:20;;;;;;;8.40;3.67;;;;;;;;;;5081011;28;20095;-66
2022/06/10 09:29:46;;;;;;;10.38;3.65;;;;;;;;;;5080212;28;20094;-67
2022/06/10 09:32:44;;;;;;;12.13;4.18;;;;;;;;;;5076947;28;20441;-67
2022/06/10 09:35:37;;;;;;;10.18;4.55;;;;;;;;;;5081888;28;20067;-66
2022/06/10 09:38:08;;;;;;;12.02;4.15;;;;;;;;;;5076097;28;20888;-67
2022/06/10 09:40:38;;;;;;;9.15;4.35;;;;;;;;;;5078511;28;20051;-66
2022/06/10 09:43:26;;;;;;;9.93;4.07;;;;;;;;;;5082218;28;20036;-66
2022/06/10 09:46:07;;;;;;;8.88;4.13;;;;;;;;;;5080133;28;20119;-68
2022/06/10 09:48:54;;;;;;;8.50;3.60;;;;;;;;;;5074875;28;20032;-70
2022/06/10 09:51:45;;;;;;;13.70;4.15;;;;;;;;;;5077425;28;20046;-69
2022/06/10 09:54:29;;;;;;;10.35;3.60;;;;;;;;;;5071101;28;20773;-68
2022/06/10 09:57:15;;;;;;;10.20;3.65;;;;;;;;;;5075823;28;20067;-67
2022/06/10 10:00:18;;;;;;;9.07;3.67;;;;;;;;;;5080691;28;20093;-67
2022/06/10 10:02:54;;;;;;;10.87;3.43;;;;;;;;;;5064821;28;20151;-67
2022/06/10 10:05:58;;;;;;;10.75;3.75;;;;;;;;;;5076652;28;20064;-67
2022/06/10 10:09:21;;;;;;;12.88;4.25;;;;;;;;;;5060732;28;20039;-67
2022/06/10 10:11:55;;;;;;;9.88;3.60;;;;;;;;;;5056522;28;20044;-67
2022/06/10 10:14:42;;;;;;;9.02;3.67;;;;;;;;;;5078151;28;20165;-67
2022/06/10 10:17:23;;;;;;;11.63;3.10;;;;;;;;;;5077360;28;20048;-67
2022/06/10 10:19:58;;;;;;;8.52;3.10;;;;;;;;;;5073833;28;20111;-68
2022/06/10 10:22:32;;;;;;;7.32;2.97;;;;;;;;;;5079046;28;20101;-68
2022/06/10 10:24:59;;;;;;;10.93;3.38;;;;;;;;;;5077749;28;20047;-69
2022/06/10 10:27:31;;;;;;;9.13;2.88;;;;;;;;;;5083761;28;20036;-67
2022/06/10 10:30:22;;;;;;;7.70;2.80;;;;;;;;;;5077380;28;20063;-69
2022/06/10 10:32:55;;;;;;;7.05;2.78;;;;;;;;;;5077396;28;20036;-70
2022/06/10 10:35:27;;;;;;;6.75;2.95;;;;;;;;;;5083216;28;20092;-70
2022/06/10 10:38:00;;;;;;;9.00;3.35;;;;;;;;;;5074846;28;20472;-70
2022/06/10 10:40:39;;;;;;;6.90;2.83;;;;;;;;;;5079761;28;20113;-70
2022/06/10 10:43:14;;;;;;;6.93;2.80;;;;;;;;;;5073636;28;20471;-70
2022/06/10 10:45:53;;;;;;;6.53;3.05;;;;;;;;;;5078817;28;20071;-71
2022/06/10 10:48:25;;;;;;;8.63;3.20;;;;;;;;;;5080549;28;20193;-71
2022/06/10 10:51:13;;;;;;;7.15;3.80;;;;;;;;;;5077036;28;20044;-70
2022/06/10 10:53:47;;;;;;;8.43;3.60;;;;;;;;;;5065393;28;20044;-71
2022/06/10 10:56:14;;;;;;;6.13;2.72;;;;;;;;;;5077177;28;20040;-71
2022/06/10 10:58:48;;;;;;;5.95;3.20;;;;;;;;;;5081852;28;20492;-71
2022/06/10 11:01:43;;;;;;;8.75;3.17;;;;;;;;;;5079280;28;20020;-71
2022/06/10 11:04:01;;;;;;;8.80;2.90;;;;;;;;;;5073973;28;20051;-70
2022/06/10 11:06:33;;;;;;;8.25;2.90;;;;;;;;;;5065373;28;20052;-70
2022/06/10 11:09:00;;;;;;;6.00;2.63;;;;;;;;;;5081293;28;20048;-70
2022/06/10 11:11:35;;;;;;;5.70;2.78;;;;;;;;;;5077802;28;20036;-70
2022/06/10 11:14:17;;;;;;;6.18;2.78;;;;;;;;;;5077504;28;20542;-68
2022/06/10 11:17:14;;;;;;;6.50;3.03;;;;;;;;;;5078097;28;20059;-67
2022/06/10 11:19:48;;;;;;;7.10;3.03;;;;;;;;;;5076957;28;20409;-70
2022/06/10 11:22:25;;;;;;;10.95;3.20;;;;;;;;;;5058912;28;20048;-68
2022/06/10 11:24:55;;;;;;;14.18;4.00;;;;;;;;;;5056536;28;20036;-69
2022/06/10 11:27:23;;;;;;;8.70;3.25;;;;;;;;;;5059734;28;20033;-67
2022/06/10 11:29:57;;;;;;;6.60;3.50;;;;;;;;;;5056749;28;20044;-67
2022/06/10 11:32:26;;;;;;;10.95;3.30;;;;;;;;;;5059784;28;20830;-68
2022/06/10 11:34:58;;;;;;;9.55;3.20;;;;;;;;;;5060298;28;20071;-67
2022/06/10 11:37:40;;;;;;;8.27;2.77;;;;;;;;;;5056343;28;20238;-67
2022/06/10 11:40:48;;;;;;;6.28;2.70;;;;;;;;;;5059305;28;20161;-67
2022/06/10 11:43:25;;;;;;;7.55;2.92;;;;;;;;;;4998090;28;20926;-67
2022/06/10 11:46:14;;;;;;;7.90;3.60;;;;;;;;;;5075748;28;20127;-67
2022/06/10 11:48:40;;;;;;;7.38;3.03;;;;;;;;;;5079214;28;20065;-68
2022/06/10 11:51:18;;;;;;;7.22;3.40;;;;;;;;;;5075184;28;20047;-67
2022/06/10 11:53:43;;;;;;;8.70;2.75;;;;;;;;;;5074651;28;20056;-67
2022/06/10 12:02:03;;;;;;;6.65;2.90;;;;;;;;;;5080604;28;20127;-68
2022/06/10 12:04:40;;;;;;;5.38;2.67;;;;;;;;;;5084627;28;20600;-68
2022/06/10 12:07:15;;;;;;;5.82;2.65;;;;;;;;;;5061528;28;21204;-68
2022/06/10 12:09:45;;;;;;;7.15;2.97;;;;;;;;;;5059734;28;20524;-68
2022/06/10 12:12:20;;;;;;;6.43;2.67;;;;;;;;;;5058075;28;20064;-68
2022/06/10 12:14:54;;;;;;;7.63;2.80;;;;;;;;;;5061594;28;20140;-68
2022/06/10 12:17:40;;;;;;;8.35;3.28;;;;;;;;;;5059988;28;20051;-68
2022/06/10 12:20:16;;;;;;;7.15;2.90;;;;;;;;;;5056135;28;20587;-68
2022/06/10 12:22:42;;;;;;;5.40;2.88;;;;;;;;;;5060720;28;20052;-68
2022/06/10 12:25:29;;;;;;;8.85;2.90;;;;;;;;;;5055975;28;20024;-68
2022/06/10 12:28:05;;;;;;;7.70;2.80;;;;;;;;;;5054761;28;20564;-69
2022/06/10 12:30:37;;;;;;;8.55;2.78;;;;;;;;;;5056688;28;20124;-68
2022/06/10 12:33:18;;;;;;;7.75;3.00;;;;;;;;;;5061429;28;20050;-68
2022/06/10 12:35:44;;;;;;;9.63;3.00;;;;;;;;;;5066676;28;20079;-68
2022/06/10 12:38:12;;;;;;;8.15;3.20;;;;;;;;;;5064773;28;20418;-68
2022/06/10 12:40:43;;;;;;;6.88;3.00;;;;;;;;;;5066831;28;20066;-68
2022/06/10 12:43:08;;;;;;;13.02;3.08;;;;;;;;;;5066325;28;20056;-68
2022/06/10 12:45:41;;;;;;;7.40;2.90;;;;;;;;;;5056788;28;20120;-69
2022/06/10 12:48:20;;;;;;;15.70;3.47;;;;;;;;;;5066258;28;20060;-68
2022/06/10 12:50:53;;;;;;;6.25;2.75;;;;;;;;;;5062220;28;20123;-68
2022/06/10 12:53:25;;;;;;;7.13;2.72;;;;;;;;;;5062213;28;20048;-69
2022/06/10 12:55:53;;;;;;;8.77;2.65;;;;;;;;;;5061863;28;20035;-68
2022/06/10 12:58:37;;;;;;;6.03;2.47;;;;;;;;;;5059508;28;20422;-68
2022/06/10 13:01:40;;;;;;;5.35;3.00;;;;;;;;;;5057016;28;20040;-68
2022/06/10 13:04:34;;;;;;;3.20;2.15;;;;;;;;;;5053676;28;20041;-69
2022/06/10 13:07:01;;;;;;;5.75;2.38;;;;;;;;;;5054599;28;20529;-68
2022/06/10 13:09:31;;;;;;;6.20;2.20;;;;;;;;;;5057976;28;20464;-68
2022/06/10 13:12:07;;;;;;;8.45;2.28;;;;;;;;;;5060906;28;20045;-68
2022/06/10 13:14:38;;;;;;;7.88;2.10;;;;;;;;;;5059694;28;20529;-68
2022/06/10 13:17:13;;;;;;;5.78;2.58;;;;;;;;;;5062423;28;20427;-67
2022/06/10 13:20:02;;;;;;;3.92;1.80;;;;;;;;;;5062756;28;20025;-69
2022/06/10 13:22:36;;;;;;;3.63;1.90;;;;;;;;;;5057077;28;20062;-68
2022/06/10 13:25:01;;;;;;;5.80;1.80;;;;;;;;;;5082806;28;20898;-68
2022/06/10 13:27:33;;;;;;;8.63;2.20;;;;;;;;;;5078767;28;20040;-68
2022/06/10 13:30:03;;;;;;;6.40;2.10;;;;;;;;;;5077655;28;20039;-68
2022/06/10 13:32:29;;;;;;;5.72;1.80;;;;;;;;;;5070910;28;20540;-68
2022/06/10 13:34:56;;;;;;;4.40;1.90;;;;;;;;;;5067961;28;20037;-68
2022/06/10 13:37:23;;;;;;;3.38;1.80;;;;;;;;;;5068304;28;20154;-68
2022/06/10 13:39:51;;;;;;;3.97;1.70;;;;;;;;;;5063237;28;20912;-67
2022/06/10 13:42:27;;;;;;;7.07;2.35;;;;;;;;;;5067670;28;20044;-68
2022/06/10 13:44:53;;;;;;;2.65;1.80;;;;;;;;;;5067659;28;20040;-69
2022/06/10 13:47:30;;;;;;;6.38;1.85;;;;;;;;;;5059046;28;20668;-69
2022/06/10 13:53:04;;;;;;;6.57;1.88;;;;;;;;;;5058637;28;20098;-68
2022/06/10 13:55:35;;;;;;;3.67;1.52;;;;;;;;;;5057518;28;20024;-68
2022/06/10 13:58:16;;;;;;;5.22;2.08;;;;;;;;;;5061630;28;20472;-68
2022/06/10 14:00:49;;;;;;;2.47;1.50;;;;;;;;;;5056548;28;20036;-68
2022/06/10 14:03:29;;;;;;;3.33;2.03;;;;;;;;;;5060522;28;20094;-68
2022/06/10 14:05:59;;;;;;;6.13;2.20;;;;;;;;;;5068306;28;20035;-68
2022/06/10 14:08:28;;;;;;;16.15;2.50;;;;;;;;;;5076245;28;20123;-67
2022/06/10 14:10:54;;;;;;;4.32;2.00;;;;;;;;;;5060374;28;20123;-68
2022/06/10 14:13:22;;;;;;;4.55;2.13;;;;;;;;;;5063368;28;20099;-68
2022/06/10 14:15:53;;;;;;;5.57;2.10;;;;;;;;;;5065799;28;20968;-69
2022/06/10 14:18:24;;;;;;;5.28;2.15;;;;;;;;;;5060718;28;20421;-69
2022/06/10 14:20:53;;;;;;;2.88;1.92;;;;;;;;;;5057542;28;20358;-69
2022/06/10 14:23:36;;;;;;;8.38;2.63;;;;;;;;;;5062525;28;20082;-70
2022/06/10 14:26:21;;;;;;;7.83;2.23;;;;;;;;;;5060143;28;20128;-69
2022/06/10 14:28:47;;;;;;;3.88;2.90;;;;;;;;;;5052299;28;20040;-71
2022/06/10 14:31:29;;;;;;;3.65;2.30;;;;;;;;;;5053730;28;20688;-72
2022/06/10 14:33:57;;;;;;;6.20;2.25;;;;;;;;;;5056170;28;20513;-72
2022/06/10 14:36:25;;;;;;;7.00;2.25;;;;;;;;;;5056129;28;20032;-68
2022/06/10 14:39:12;;;;;;;5.65;2.10;;;;;;;;;;5062641;28;20064;-68
2022/06/10 14:42:11;;;;;;;2.80;1.80;;;;;;;;;;5054177;28;20033;-68
2022/06/10 14:44:52;;;;;;;5.30;2.00;;;;;;;;;;5048344;28;20029;-68
2022/06/10 14:47:22;;;;;;;5.10;2.25;;;;;;;;;;5056805;28;20067;-68
2022/06/10 14:50:01;;;;;;;6.43;1.90;;;;;;;;;;5057683;28;20023;-68
2022/06/10 14:52:43;;;;;;;4.78;2.08;;;;;;;;;;5055131;28;20544;-68
2022/06/10 14:55:34;;;;;;;6.15;1.80;;;;;;;;;;5057726;28;20048;-68
2022/06/10 14:58:09;;;;;;;6.47;2.20;;;;;;;;;;5061224;28;20421;-68
2022/06/10 15:00:35;;;;;;;5.10;1.98;;;;;;;;;;5060687;28;20520;-68
2022/06/10 15:03:02;;;;;;;3.03;1.50;;;;;;;;;;5058502;28;20662;-68
2022/06/10 15:08:16;;;;;;;4.95;1.90;;;;;;;;;;5061749;28;20980;-67
2022/06/10 15:10:44;;;;;;;3.92;1.90;;;;;;;;;;5064963;28;20142;-67
2022/06/10 15:13:26;;;;;;;2.15;1.77;;;;;;;;;;5060208;28;20489;-68
2022/06/10 15:15:51;;;;;;;3.72;1.88;;;;;;;;;;5076917;28;20064;-67
2022/06/10 15:18:17;;;;;;;4.03;1.67;;;;;;;;;;5066162;28;20067;-67
2022/06/10 15:20:45;;;;;;;3.70;1.60;;;;;;;;;;5067616;28;20140;-67
2022/06/10 15:23:13;;;;;;;2.60;1.70;;;;;;;;;;5071504;28;20036;-66
2022/06/10 15:25:40;;;;;;;4.53;1.63;;;;;;;;;;5067387;28;20032;-67
2022/06/10 15:28:12;;;;;;;3.53;1.67;;;;;;;;;;5077889;28;20060;-67
2022/06/10 15:30:38;;;;;;;4.82;1.90;;;;;;;;;;5076925;28;20029;-67